Time;durP1;ratioP1;P1;durP2;ratioP2;P2;SDS_P1;SDS_P2;PMS_P1;PMS_P2;Temp;Humidity;BMP_temperature;BMP_pressure;BME280_temperature;BME280_humidity;BME280_pressure;Samples;Min_cycle;Max_cycle;Signal;HPM_P1;HPM_P2
2022/06/19 00:00:26;;;;;;;2.30;1.52;;;14.40;99.90;;;;;;5053968;28;20202;-80
2022/06/19 00:02:57;;;;;;;4.07;1.33;;;14.50;99.90;;;;;;5057942;28;20196;-78
2022/06/19 00:05:28;;;;;;;3.45;1.38;;;14.60;99.90;;;;;;5052502;28;20187;-78
2022/06/19 00:08:01;;;;;;;1.98;1.20;;;14.70;99.90;;;;;;5053056;28;20209;-79
2022/06/19 00:10:32;;;;;;;3.40;1.67;;;14.80;99.90;;;;;;5052092;28;20190;-77
2022/06/19 00:13:03;;;;;;;2.90;1.50;;;14.80;99.90;;;;;;5057013;28;20599;-77
2022/06/19 00:15:33;;;;;;;3.55;1.30;;;14.90;99.90;;;;;;5053399;28;20186;-78
2022/06/19 00:18:04;;;;;;;3.40;1.58;;;14.90;99.90;;;;;;5053741;28;20636;-78
2022/06/19 00:20:35;;;;;;;3.42;1.45;;;15.10;99.90;;;;;;5049582;28;20265;-79
2022/06/19 00:23:07;;;;;;;2.55;1.55;;;15.20;99.90;;;;;;5047391;28;20194;-78
2022/06/19 00:25:39;;;;;;;4.90;1.30;;;15.30;99.90;;;;;;5049082;28;20190;-78
2022/06/19 00:28:10;;;;;;;3.03;1.48;;;15.40;99.90;;;;;;5053045;28;20221;-79
2022/06/19 00:30:41;;;;;;;2.13;1.20;;;15.50;99.90;;;;;;5050971;28;20186;-82
2022/06/19 00:33:11;;;;;;;3.75;1.40;;;15.50;99.90;;;;;;5053687;28;20194;-78
2022/06/19 00:35:42;;;;;;;2.78;1.25;;;15.70;99.90;;;;;;5048582;28;20189;-77
2022/06/19 00:38:15;;;;;;;3.25;1.30;;;15.70;99.90;;;;;;5044962;28;20198;-78
2022/06/19 00:40:45;;;;;;;3.92;1.50;;;15.80;99.90;;;;;;5054629;28;20186;-77
2022/06/19 00:43:16;;;;;;;3.47;1.50;;;15.90;99.90;;;;;;5054476;28;20189;-79
2022/06/19 00:45:50;;;;;;;2.50;1.20;;;16.00;99.90;;;;;;5053214;28;20240;-78
2022/06/19 00:48:23;;;;;;;3.70;1.50;;;16.00;99.90;;;;;;5053845;28;20641;-79
2022/06/19 00:50:59;;;;;;;3.75;1.63;;;16.10;99.90;;;;;;5053463;28;20190;-77
2022/06/19 00:53:38;;;;;;;4.20;1.83;;;16.10;99.90;;;;;;5050674;28;20346;-77
2022/06/19 00:56:14;;;;;;;5.97;1.50;;;16.20;99.90;;;;;;5052510;28;20192;-79
2022/06/19 00:58:45;;;;;;;4.32;1.42;;;16.20;99.90;;;;;;5047276;28;20193;-79
2022/06/19 01:01:19;;;;;;;3.25;1.33;;;16.30;99.90;;;;;;5047311;28;20231;-79
2022/06/19 01:03:55;;;;;;;2.13;1.40;;;16.40;99.90;;;;;;5046360;28;20202;-78
2022/06/19 01:06:28;;;;;;;3.83;1.20;;;16.50;99.90;;;;;;5053656;28;20640;-77
2022/06/19 01:09:01;;;;;;;5.90;1.35;;;16.60;99.90;;;;;;5045385;28;20189;-78
2022/06/19 01:11:37;;;;;;;2.28;1.30;;;16.60;99.90;;;;;;5054633;28;20181;-78
2022/06/19 01:14:11;;;;;;;3.47;1.30;;;16.70;99.90;;;;;;5056693;28;20190;-77
2022/06/19 01:16:42;;;;;;;3.47;1.30;;;16.90;99.90;;;;;;5048953;28;20595;-78
2022/06/19 01:19:16;;;;;;;3.78;1.35;;;17.00;99.90;;;;;;5051468;28;20186;-78
2022/06/19 01:21:51;;;;;;;5.50;1.40;;;17.20;99.90;;;;;;5050764;28;20595;-80
2022/06/19 01:24:30;;;;;;;2.60;1.30;;;17.20;99.90;;;;;;5056450;28;20552;-78
2022/06/19 01:27:05;;;;;;;2.15;1.25;;;17.30;99.90;;;;;;5049003;28;20217;-79
2022/06/19 01:29:35;;;;;;;3.42;1.35;;;17.50;99.90;;;;;;5055243;28;20553;-81
2022/06/19 01:32:09;;;;;;;3.95;1.20;;;17.60;99.90;;;;;;5050415;28;20224;-78
2022/06/19 01:34:41;;;;;;;3.50;0.95;;;17.70;99.90;;;;;;5053815;28;20190;-77
2022/06/19 01:37:18;;;;;;;3.85;1.27;;;17.80;99.90;;;;;;5048833;28;20190;-79
2022/06/19 01:39:53;;;;;;;5.32;1.20;;;17.90;99.90;;;;;;5051305;28;20186;-78
2022/06/19 01:42:26;;;;;;;3.72;1.40;;;18.00;99.90;;;;;;5046725;28;20652;-81
2022/06/19 01:44:57;;;;;;;3.08;1.20;;;18.00;99.90;;;;;;5057295;28;20216;-81
2022/06/19 01:47:28;;;;;;;2.60;1.10;;;17.90;99.90;;;;;;5047636;28;20237;-81
2022/06/19 01:50:00;;;;;;;2.65;1.23;;;17.80;99.90;;;;;;5046109;28;20650;-79
2022/06/19 01:52:33;;;;;;;2.85;1.30;;;17.70;99.90;;;;;;5047744;28;20189;-77
2022/06/19 01:55:08;;;;;;;3.33;1.10;;;17.80;99.90;;;;;;5054718;28;20560;-79
2022/06/19 01:57:44;;;;;;;5.40;1.23;;;17.80;99.90;;;;;;5050528;28;20225;-78
2022/06/19 02:00:19;;;;;;;2.75;1.05;;;18.00;99.90;;;;;;5052310;28;20194;-79
2022/06/19 02:02:54;;;;;;;3.60;0.95;;;18.10;99.90;;;;;;5045884;28;20190;-77
2022/06/19 02:05:25;;;;;;;5.13;1.10;;;18.20;99.90;;;;;;5043293;28;20189;-81
2022/06/19 02:07:56;;;;;;;5.00;1.17;;;18.10;99.90;;;;;;5051715;28;20395;-79
2022/06/19 02:10:27;;;;;;;3.70;1.00;;;18.00;99.90;;;;;;5047261;28;20202;-80
2022/06/19 02:13:01;;;;;;;3.28;1.20;;;18.00;99.90;;;;;;5040389;28;20196;-79
2022/06/19 02:15:34;;;;;;;4.05;0.98;;;17.90;99.90;;;;;;5049545;28;20204;-78
2022/06/19 02:18:08;;;;;;;2.80;1.15;;;18.00;99.90;;;;;;5058181;28;20198;-81
2022/06/19 02:20:38;;;;;;;3.03;0.82;;;18.20;99.90;;;;;;5049297;28;20190;-80
2022/06/19 02:23:09;;;;;;;3.00;0.82;;;18.50;99.90;;;;;;5045664;28;20537;-81
2022/06/19 02:25:44;;;;;;;4.05;1.00;;;18.50;99.90;;;;;;5047295;28;20197;-82
2022/06/19 02:28:18;;;;;;;3.30;0.82;;;18.50;99.90;;;;;;5050515;28;20200;-82
2022/06/19 02:30:51;;;;;;;2.15;0.90;;;18.50;99.90;;;;;;5058669;28;20189;-82
2022/06/19 02:33:25;;;;;;;2.05;0.80;;;18.50;99.90;;;;;;5052990;28;20193;-82
2022/06/19 02:35:56;;;;;;;1.25;0.77;;;18.40;99.90;;;;;;5054972;28;20186;-81
2022/06/19 02:38:27;;;;;;;2.42;0.63;;;18.50;99.90;;;;;;5059959;28;20189;-81
2022/06/19 02:41:08;;;;;;;3.78;0.90;;;18.60;99.90;;;;;;5055253;28;20197;-79
2022/06/19 02:43:41;;;;;;;2.83;0.93;;;18.60;99.90;;;;;;5056010;28;20190;-83
2022/06/19 02:46:11;;;;;;;3.33;0.82;;;18.70;99.90;;;;;;5057864;28;20712;-81
2022/06/19 02:48:42;;;;;;;2.58;0.70;;;18.80;99.90;;;;;;5062205;28;20695;-82
2022/06/19 02:51:13;;;;;;;3.22;0.88;;;18.90;99.90;;;;;;5058976;28;20190;-81
2022/06/19 02:53:44;;;;;;;2.75;0.80;;;18.70;99.90;;;;;;5061345;28;20186;-81
2022/06/19 02:56:14;;;;;;;2.53;0.70;;;18.60;99.90;;;;;;5060590;28;20193;-80
2022/06/19 02:58:48;;;;;;;2.85;0.82;;;18.50;99.90;;;;;;5057132;28;20198;-80
2022/06/19 03:01:18;;;;;;;3.97;1.00;;;18.50;99.90;;;;;;5049434;28;20201;-82
2022/06/19 03:03:49;;;;;;;3.80;0.93;;;18.50;99.90;;;;;;5049220;28;20205;-81
2022/06/19 03:06:20;;;;;;;2.03;0.77;;;18.70;99.90;;;;;;5060469;28;20198;-82
2022/06/19 03:08:51;;;;;;;2.90;0.80;;;18.70;99.90;;;;;;5057247;28;20677;-82
2022/06/19 03:11:21;;;;;;;3.85;0.90;;;18.90;99.90;;;;;;5055813;28;20251;-81
2022/06/19 03:13:54;;;;;;;3.67;0.77;;;18.90;99.90;;;;;;5061297;28;20219;-82
2022/06/19 03:16:24;;;;;;;2.55;0.80;;;18.70;99.90;;;;;;5058616;28;20197;-81
2022/06/19 03:18:57;;;;;;;4.15;0.80;;;18.50;99.90;;;;;;5060518;28;20197;-80
2022/06/19 03:21:28;;;;;;;4.13;0.98;;;18.30;99.90;;;;;;5059224;28;20200;-82
2022/06/19 03:23:58;;;;;;;3.45;0.90;;;18.10;99.90;;;;;;5056991;28;20653;-82
2022/06/19 03:26:30;;;;;;;2.20;0.90;;;18.00;99.90;;;;;;5055593;28;20193;-82
2022/06/19 03:29:03;;;;;;;2.60;1.00;;;17.90;99.90;;;;;;5058659;28;20232;-82
2022/06/19 03:31:34;;;;;;;4.10;1.10;;;17.90;99.90;;;;;;5056748;28;20201;-82
2022/06/19 03:34:05;;;;;;;4.57;0.80;;;17.90;99.90;;;;;;5054617;28;20527;-81
2022/06/19 03:36:35;;;;;;;3.28;1.00;;;17.90;99.90;;;;;;5059643;28;20823;-81
2022/06/19 03:39:06;;;;;;;3.63;0.90;;;18.00;99.90;;;;;;5058473;28;20566;-84
2022/06/19 03:41:37;;;;;;;5.15;0.90;;;18.10;99.90;;;;;;5055523;28;20683;-82
2022/06/19 03:44:10;;;;;;;2.97;0.70;;;18.20;99.90;;;;;;5057805;28;20226;-81
2022/06/19 03:46:41;;;;;;;4.72;0.98;;;18.20;99.90;;;;;;5053303;28;20692;-80
2022/06/19 03:49:13;;;;;;;3.50;0.90;;;18.30;99.90;;;;;;5048705;28;20228;-83
2022/06/19 03:51:43;;;;;;;3.58;0.80;;;18.30;99.90;;;;;;5053091;28;20190;-80
2022/06/19 03:54:14;;;;;;;3.30;0.88;;;18.30;99.90;;;;;;5050518;28;20198;-82
2022/06/19 03:56:45;;;;;;;4.68;0.88;;;18.20;99.90;;;;;;5053150;28;20193;-84
2022/06/19 03:59:17;;;;;;;3.72;1.08;;;18.20;99.90;;;;;;5049095;28;20198;-81
2022/06/19 04:01:48;;;;;;;5.00;1.00;;;18.20;99.90;;;;;;5052611;28;20208;-82
2022/06/19 04:04:19;;;;;;;1.50;1.02;;;18.20;99.90;;;;;;5050244;28;20194;-81
2022/06/19 04:06:49;;;;;;;4.22;1.13;;;18.20;99.90;;;;;;5048866;28;20190;-82
2022/06/19 04:09:21;;;;;;;6.63;1.00;;;18.20;99.90;;;;;;5053513;28;20224;-81
2022/06/19 04:11:51;;;;;;;3.08;1.00;;;18.20;99.90;;;;;;5055497;28;20228;-82
2022/06/19 04:14:24;;;;;;;4.93;0.82;;;18.10;99.90;;;;;;5047716;28;20194;-83
2022/06/19 04:16:55;;;;;;;2.28;0.82;;;18.10;99.90;;;;;;5050465;28;20563;-81
2022/06/19 04:19:27;;;;;;;2.58;1.00;;;18.10;99.90;;;;;;5051113;28;20197;-81
2022/06/19 04:21:57;;;;;;;3.13;1.02;;;18.10;99.90;;;;;;5050207;28;20190;-83
2022/06/19 04:24:28;;;;;;;5.35;1.00;;;18.10;99.90;;;;;;5051606;28;20197;-80
2022/06/19 04:26:59;;;;;;;3.17;1.05;;;18.10;99.90;;;;;;5054150;28;20208;-80
2022/06/19 04:29:31;;;;;;;5.18;1.00;;;18.00;99.90;;;;;;5052237;28;20228;-79
2022/06/19 04:32:03;;;;;;;3.58;1.00;;;18.00;99.90;;;;;;5052735;28;20194;-80
2022/06/19 04:34:33;;;;;;;2.35;0.80;;;18.00;99.90;;;;;;5055234;28;20185;-81
2022/06/19 04:37:04;;;;;;;4.35;0.95;;;18.00;99.90;;;;;;5050199;28;20192;-81
2022/06/19 04:39:35;;;;;;;4.07;1.00;;;17.90;99.90;;;;;;5050643;28;20236;-82
2022/06/19 04:42:38;;;;;;;2.95;1.00;;;17.90;99.90;;;;;;5057091;28;20649;-80
2022/06/19 04:45:11;;;;;;;3.97;1.00;;;18.00;99.90;;;;;;5032769;28;20221;-81
2022/06/19 04:50:31;;;;;;;5.43;1.00;;;18.10;99.90;;;;;;5043932;28;20285;-83
2022/06/19 04:53:02;;;;;;;3.33;1.10;;;18.10;99.90;;;;;;5050169;28;20661;-82
2022/06/19 04:55:33;;;;;;;2.38;1.00;;;18.10;99.90;;;;;;5056312;28;20193;-81
2022/06/19 04:58:07;;;;;;;5.22;1.10;;;18.10;99.90;;;;;;5051342;28;20204;-81
2022/06/19 05:00:39;;;;;;;3.33;0.85;;;18.00;99.90;;;;;;5050771;28;20229;-81
2022/06/19 05:03:10;;;;;;;2.60;0.95;;;18.00;99.90;;;;;;5046896;28;20661;-82
2022/06/19 05:05:41;;;;;;;4.85;0.93;;;18.00;99.90;;;;;;5048280;28;20251;-82
2022/06/19 05:08:11;;;;;;;3.88;1.00;;;17.90;99.90;;;;;;5058468;28;20212;-82
2022/06/19 05:10:42;;;;;;;2.47;0.98;;;17.90;99.90;;;;;;5049641;28;20657;-85
2022/06/19 05:13:18;;;;;;;2.35;0.80;;;17.80;99.90;;;;;;5049846;28;20607;-83
2022/06/19 05:15:52;;;;;;;2.53;1.00;;;17.80;99.90;;;;;;5052941;28;20204;-82
2022/06/19 05:18:22;;;;;;;11.27;1.33;;;17.80;99.90;;;;;;5049736;28;20193;-83
2022/06/19 05:21:01;;;;;;;3.30;0.90;;;17.80;99.90;;;;;;5050052;28;20200;-82
2022/06/19 05:23:31;;;;;;;2.10;0.70;;;17.70;99.90;;;;;;5054978;28;20643;-82
2022/06/19 05:26:04;;;;;;;3.58;0.80;;;17.70;99.90;;;;;;5054149;28;20187;-83
2022/06/19 05:28:37;;;;;;;2.42;0.85;;;17.70;99.90;;;;;;5044809;28;20569;-82
2022/06/19 05:31:10;;;;;;;3.50;0.88;;;17.60;99.90;;;;;;5047586;28;20201;-81
2022/06/19 05:33:41;;;;;;;5.07;1.35;;;17.60;99.90;;;;;;5057059;28;20682;-83
2022/06/19 05:36:12;;;;;;;3.67;0.88;;;17.50;99.90;;;;;;5048182;28;20197;-81
2022/06/19 05:38:42;;;;;;;4.88;1.00;;;17.50;99.90;;;;;;5049906;28;20201;-82
2022/06/19 05:41:13;;;;;;;8.65;1.42;;;17.50;99.90;;;;;;5049976;28;20260;-84
2022/06/19 05:43:44;;;;;;;2.42;0.90;;;17.40;99.90;;;;;;5049506;28;20947;-81
2022/06/19 05:46:18;;;;;;;4.03;0.80;;;17.40;99.90;;;;;;5050236;28;20700;-83
2022/06/19 05:48:49;;;;;;;2.85;0.90;;;17.30;99.90;;;;;;5045308;28;20327;-82
2022/06/19 05:51:22;;;;;;;5.95;0.98;;;17.30;99.90;;;;;;5051570;28;20233;-83
2022/06/19 05:53:54;;;;;;;5.63;0.90;;;17.30;99.90;;;;;;5048964;28;20198;-83
2022/06/19 05:56:25;;;;;;;4.43;1.33;;;17.20;99.90;;;;;;5048412;28;20204;-83
2022/06/19 05:58:56;;;;;;;3.20;1.00;;;17.20;99.90;;;;;;5049657;28;20202;-87
2022/06/19 06:01:30;;;;;;;12.20;4.93;;;17.20;99.90;;;;;;5051289;28;20578;-82
2022/06/19 06:04:01;;;;;;;13.30;7.13;;;17.10;99.90;;;;;;5047576;28;20190;-82
2022/06/19 06:06:33;;;;;;;14.38;6.70;;;17.10;99.90;;;;;;5045024;28;20216;-79
2022/06/19 06:09:04;;;;;;;13.68;5.50;;;17.10;99.90;;;;;;5048509;28;20232;-80
2022/06/19 06:11:34;;;;;;;7.60;2.80;;;17.00;99.90;;;;;;5047689;28;20197;-80
2022/06/19 06:14:05;;;;;;;6.20;1.48;;;17.00;99.90;;;;;;5052274;28;20193;-80
2022/06/19 06:16:38;;;;;;;4.47;1.27;;;16.90;99.90;;;;;;5052770;28;20186;-80
2022/06/19 06:19:08;;;;;;;3.75;0.95;;;16.90;99.90;;;;;;5048878;28;20190;-79
2022/06/19 06:21:39;;;;;;;2.53;0.80;;;16.80;99.90;;;;;;5051366;28;20186;-79
2022/06/19 06:24:10;;;;;;;32.40;18.10;;;16.70;99.90;;;;;;5052185;28;20205;-79
2022/06/19 06:26:41;;;;;;;4.55;1.90;;;16.70;99.90;;;;;;5052602;28;20185;-81
2022/06/19 06:29:12;;;;;;;20.90;9.77;;;16.60;99.90;;;;;;5049924;28;20239;-81
2022/06/19 06:31:45;;;;;;;7.68;2.88;;;16.60;99.90;;;;;;5050151;28;20194;-80
2022/06/19 06:34:16;;;;;;;10.55;5.70;;;16.50;99.90;;;;;;5052237;28;20194;-82
2022/06/19 06:36:47;;;;;;;8.63;2.70;;;16.50;99.90;;;;;;5051529;28;20192;-82
2022/06/19 06:39:18;;;;;;;4.47;1.20;;;16.40;99.90;;;;;;5051093;28;20193;-81
2022/06/19 06:41:48;;;;;;;12.60;3.25;;;16.30;99.90;;;;;;5051346;28;20198;-79
2022/06/19 06:44:19;;;;;;;6.13;2.60;;;16.20;99.90;;;;;;5052212;28;20218;-82
2022/06/19 06:46:52;;;;;;;3.78;1.77;;;16.20;99.90;;;;;;5050648;28;20236;-83
2022/06/19 06:49:22;;;;;;;4.95;1.63;;;16.10;99.90;;;;;;5050642;28;20210;-82
2022/06/19 06:51:53;;;;;;;5.68;1.45;;;16.10;99.90;;;;;;5052204;28;20193;-83
2022/06/19 06:54:24;;;;;;;6.88;1.83;;;16.00;99.90;;;;;;5050781;28;20190;-82
2022/06/19 06:56:56;;;;;;;4.63;1.40;;;16.00;99.90;;;;;;5050795;28;20198;-83
2022/06/19 06:59:27;;;;;;;4.95;1.40;;;15.90;99.90;;;;;;5052007;28;20190;-80
2022/06/19 07:01:59;;;;;;;4.78;1.38;;;15.90;99.90;;;;;;5052154;28;20198;-83
2022/06/19 07:04:30;;;;;;;4.75;1.15;;;15.90;99.90;;;;;;5051440;28;20190;-84
2022/06/19 07:07:02;;;;;;;5.63;1.23;;;15.80;99.90;;;;;;5049719;28;20593;-80
2022/06/19 07:09:32;;;;;;;6.30;1.60;;;15.80;99.90;;;;;;5053051;28;20718;-79
2022/06/19 07:12:03;;;;;;;4.15;1.17;;;15.80;99.90;;;;;;5055612;28;20201;-80
2022/06/19 07:14:34;;;;;;;2.25;0.90;;;15.80;99.90;;;;;;5054920;28;20280;-80
2022/06/19 07:17:09;;;;;;;4.13;1.10;;;15.80;99.90;;;;;;5055160;28;20197;-84
2022/06/19 07:19:40;;;;;;;4.05;0.80;;;15.70;99.90;;;;;;5055477;28;20413;-86
2022/06/19 07:22:14;;;;;;;2.17;0.70;;;15.60;99.90;;;;;;5055210;28;20209;-83
2022/06/19 07:24:46;;;;;;;1.60;0.60;;;15.40;99.90;;;;;;5048680;28;20185;-83
2022/06/19 07:27:17;;;;;;;1.58;0.60;;;15.20;99.90;;;;;;5055721;28;20231;-83
2022/06/19 07:29:48;;;;;;;1.63;0.52;;;15.10;99.90;;;;;;5055482;28;20229;-82
2022/06/19 07:32:20;;;;;;;1.00;0.60;;;14.90;99.90;;;;;;5055385;28;20218;-82
2022/06/19 07:34:51;;;;;;;2.35;0.73;;;14.90;99.90;;;;;;5055323;28;20194;-83
2022/06/19 07:37:22;;;;;;;2.28;0.60;;;14.90;99.90;;;;;;5054876;28;20189;-84
2022/06/19 07:39:52;;;;;;;2.00;0.85;;;14.70;99.90;;;;;;5054698;28;20185;-82
2022/06/19 07:42:23;;;;;;;4.38;0.90;;;14.60;99.90;;;;;;5054890;28;20186;-81
2022/06/19 07:44:54;;;;;;;5.93;1.38;;;14.50;99.90;;;;;;5054381;28;20224;-84
2022/06/19 07:50:16;;;;;;;4.35;1.50;;;14.50;99.90;;;;;;5054825;28;20694;-85
2022/06/19 07:52:49;;;;;;;3.20;1.60;;;14.50;99.90;;;;;;5047514;28;20189;-84
2022/06/19 07:55:21;;;;;;;4.93;2.63;;;14.50;99.90;;;;;;5053786;28;20247;-85
2022/06/19 07:57:52;;;;;;;5.63;3.00;;;14.40;99.90;;;;;;5050580;28;20209;-85
2022/06/19 08:00:25;;;;;;;6.13;2.13;;;14.40;99.90;;;;;;5054399;28;20185;-84
2022/06/19 08:02:57;;;;;;;3.78;1.80;;;14.40;99.90;;;;;;5054780;28;20190;-83
2022/06/19 08:05:30;;;;;;;6.82;1.80;;;14.40;99.90;;;;;;5054336;28;20269;-83
2022/06/19 08:08:02;;;;;;;7.22;1.80;;;14.40;99.90;;;;;;5048693;28;20190;-83
2022/06/19 08:10:35;;;;;;;4.85;1.50;;;14.30;99.90;;;;;;5054465;28;20213;-82
2022/06/19 08:13:07;;;;;;;3.63;1.40;;;14.20;99.90;;;;;;5054566;28;20193;-82
2022/06/19 08:15:38;;;;;;;2.90;1.20;;;14.20;99.90;;;;;;5053471;28;20591;-82
2022/06/19 08:18:11;;;;;;;4.75;1.50;;;14.20;99.90;;;;;;5054329;28;20197;-83
2022/06/19 08:20:42;;;;;;;7.13;1.40;;;14.20;99.90;;;;;;5053088;28;20260;-82
2022/06/19 08:23:13;;;;;;;6.68;1.70;;;14.20;99.90;;;;;;5049353;28;20194;-83
2022/06/19 08:25:45;;;;;;;3.05;1.40;;;14.20;99.90;;;;;;5054397;28;20239;-83
2022/06/19 08:28:17;;;;;;;6.43;1.48;;;14.20;99.90;;;;;;5054308;28;20645;-83
2022/06/19 08:30:48;;;;;;;3.55;1.60;;;14.30;99.90;;;;;;5049354;28;20221;-83
2022/06/19 08:33:20;;;;;;;5.88;1.77;;;14.30;99.90;;;;;;5051992;28;20200;-84
2022/06/19 08:35:54;;;;;;;4.40;1.65;;;14.30;99.90;;;;;;5052888;28;20240;-85
2022/06/19 08:38:28;;;;;;;3.28;1.63;;;14.20;99.90;;;;;;5048464;28;20298;-84
2022/06/19 08:41:32;;;;;;;4.47;2.15;;;14.20;99.90;;;;;;5049137;28;20205;-83
2022/06/19 08:44:35;;;;;;;2.22;1.80;;;14.30;99.90;;;;;;5015989;28;20225;-81
2022/06/19 08:47:24;;;;;;;5.28;2.08;;;14.30;99.90;;;;;;5051368;28;20224;-81
2022/06/19 08:50:08;;;;;;;4.85;2.20;;;14.30;99.90;;;;;;5050231;28;20224;-81
2022/06/19 08:52:49;;;;;;;6.00;2.17;;;14.20;99.90;;;;;;5050182;28;20209;-81
2022/06/19 08:55:29;;;;;;;4.88;2.78;;;14.20;99.90;;;;;;5050298;28;20204;-83
2022/06/19 08:58:10;;;;;;;4.78;2.72;;;14.20;99.90;;;;;;5051364;28;20189;-80
2022/06/19 09:01:09;;;;;;;6.97;3.08;;;14.20;99.90;;;;;;5047678;28;20213;-81
2022/06/19 09:06:45;;;;;;;8.85;3.03;;;14.20;99.90;;;;;;5047848;28;20201;-83
2022/06/19 09:09:36;;;;;;;7.60;2.90;;;14.10;99.90;;;;;;5046163;28;20547;-84
2022/06/19 09:12:21;;;;;;;4.45;2.28;;;14.10;99.90;;;;;;5043437;28;20220;-85
2022/06/19 09:15:04;;;;;;;5.68;2.13;;;14.00;99.90;;;;;;5049043;28;20197;-84
2022/06/19 09:17:48;;;;;;;4.60;1.92;;;14.00;99.90;;;;;;5043362;28;20197;-85
2022/06/19 09:20:26;;;;;;;3.40;1.80;;;14.00;99.90;;;;;;5045928;28;20276;-84
2022/06/19 09:23:31;;;;;;;4.28;1.67;;;13.90;99.90;;;;;;5049683;28;20649;-84
2022/06/19 09:26:08;;;;;;;4.80;1.88;;;13.90;99.90;;;;;;5044172;28;20205;-84
2022/06/19 09:28:45;;;;;;;5.55;2.20;;;13.90;99.90;;;;;;5049233;28;20285;-83
2022/06/19 09:31:20;;;;;;;4.45;1.95;;;13.90;99.90;;;;;;5051991;28;20264;-81
2022/06/19 09:33:59;;;;;;;5.03;2.40;;;13.80;99.90;;;;;;5050082;28;20197;-83
2022/06/19 09:36:36;;;;;;;4.70;2.20;;;13.80;99.90;;;;;;5046604;28;20201;-85
2022/06/19 09:39:15;;;;;;;4.05;2.15;;;13.80;99.90;;;;;;5052863;28;20193;-85
2022/06/19 09:41:49;;;;;;;4.30;2.10;;;13.90;99.90;;;;;;5050435;28;21051;-86
2022/06/19 09:44:25;;;;;;;4.32;2.00;;;13.90;99.90;;;;;;5040566;28;20631;-85
2022/06/19 09:47:03;;;;;;;3.92;2.03;;;13.90;99.90;;;;;;5052510;28;20235;-85
2022/06/19 09:49:40;;;;;;;3.67;1.90;;;13.90;99.90;;;;;;5052426;28;20787;-85
2022/06/19 09:52:15;;;;;;;3.13;1.90;;;13.90;99.90;;;;;;5051782;28;20251;-84
2022/06/19 09:54:53;;;;;;;5.50;2.05;;;13.90;99.90;;;;;;5050910;28;20672;-85
2022/06/19 09:57:30;;;;;;;7.18;2.80;;;14.00;99.90;;;;;;5046207;28;20649;-86
2022/06/19 10:00:05;;;;;;;5.85;2.58;;;13.90;99.90;;;;;;5051581;28;20700;-85
2022/06/19 10:02:44;;;;;;;5.13;2.50;;;13.90;99.90;;;;;;5052330;28;20193;-85
2022/06/19 10:05:24;;;;;;;8.88;2.70;;;13.90;99.90;;;;;;5047924;28;20675;-81
2022/06/19 10:07:59;;;;;;;6.55;2.67;;;13.90;99.90;;;;;;5050787;28;20194;-81
2022/06/19 10:10:37;;;;;;;7.63;2.78;;;13.90;99.90;;;;;;5045771;28;20216;-82
2022/06/19 10:13:13;;;;;;;6.05;2.80;;;13.80;99.90;;;;;;5047467;28;20194;-82
2022/06/19 10:15:46;;;;;;;4.55;2.67;;;13.80;99.90;;;;;;5051348;28;20615;-81
2022/06/19 10:18:21;;;;;;;6.97;2.70;;;13.80;99.90;;;;;;5051214;28;20202;-81
2022/06/19 10:20:59;;;;;;;7.22;2.92;;;13.80;99.90;;;;;;5051273;28;20549;-81
2022/06/19 10:23:45;;;;;;;5.22;2.97;;;13.80;99.90;;;;;;5049752;28;20205;-81
2022/06/19 10:26:33;;;;;;;5.68;3.13;;;13.90;99.90;;;;;;5050430;28;20547;-81
2022/06/19 10:29:32;;;;;;;8.05;3.58;;;13.80;99.90;;;;;;5051026;28;20203;-81
2022/06/19 10:32:18;;;;;;;5.25;3.30;;;13.80;99.90;;;;;;5048750;28;20229;-80
2022/06/19 10:34:57;;;;;;;6.93;2.97;;;13.80;99.90;;;;;;5047473;28;20216;-81
2022/06/19 10:37:38;;;;;;;8.02;3.40;;;13.80;99.90;;;;;;5042998;28;20201;-85
2022/06/19 10:40:21;;;;;;;8.20;3.30;;;13.70;99.90;;;;;;5049734;28;20205;-82
2022/06/19 10:43:04;;;;;;;5.32;3.03;;;13.70;99.90;;;;;;5049313;28;20216;-83
2022/06/19 10:45:45;;;;;;;7.38;3.33;;;13.70;99.90;;;;;;5056044;28;20192;-83
2022/06/19 10:48:36;;;;;;;6.97;3.28;;;13.70;99.90;;;;;;5053017;28;20197;-83
2022/06/19 10:51:18;;;;;;;5.38;3.17;;;13.60;99.90;;;;;;5048086;28;20220;-82
2022/06/19 10:54:13;;;;;;;6.18;2.97;;;13.70;99.90;;;;;;5054565;28;20193;-83
2022/06/19 10:56:52;;;;;;;4.80;3.03;;;13.70;99.90;;;;;;5020032;28;20202;-84
2022/06/19 10:59:25;;;;;;;5.18;3.05;;;13.70;99.90;;;;;;5047500;28;20201;-84
2022/06/19 11:04:58;;;;;;;6.03;2.97;;;13.70;99.90;;;;;;5044262;28;20185;-82
2022/06/19 11:07:31;;;;;;;8.73;3.40;;;13.80;99.90;;;;;;5052626;28;20590;-83
2022/06/19 11:10:07;;;;;;;9.27;3.53;;;13.70;99.90;;;;;;5054843;28;20237;-82
2022/06/19 11:12:40;;;;;;;7.05;3.33;;;13.70;99.90;;;;;;5053493;28;20221;-83
2022/06/19 11:15:20;;;;;;;8.80;3.42;;;13.70;99.90;;;;;;5050689;28;20190;-83
2022/06/19 11:17:50;;;;;;;7.20;4.10;;;13.70;99.90;;;;;;5047936;28;20197;-83
2022/06/19 11:20:27;;;;;;;8.52;3.80;;;13.70;99.90;;;;;;5050274;28;20193;-83
2022/06/19 11:23:06;;;;;;;6.65;3.83;;;13.60;99.90;;;;;;5054063;28;20200;-84
2022/06/19 11:25:39;;;;;;;7.15;3.92;;;13.70;99.90;;;;;;5053237;28;20699;-84
2022/06/19 11:28:14;;;;;;;6.30;4.10;;;13.60;99.90;;;;;;5052975;28;20217;-83
2022/06/19 11:30:50;;;;;;;10.00;3.60;;;13.60;99.90;;;;;;5053506;28;20212;-83
2022/06/19 11:33:33;;;;;;;8.38;4.10;;;13.60;99.90;;;;;;5053370;28;20197;-83
2022/06/19 11:36:08;;;;;;;7.22;3.90;;;13.50;99.90;;;;;;5053355;28;20189;-83
2022/06/19 11:38:41;;;;;;;7.07;3.78;;;13.50;99.90;;;;;;5050472;28;20284;-84
2022/06/19 11:41:27;;;;;;;7.57;4.18;;;13.50;99.90;;;;;;5054747;28;20192;-84
2022/06/19 11:44:16;;;;;;;5.93;3.65;;;13.50;99.90;;;;;;5050274;28;21496;-84
2022/06/19 11:46:51;;;;;;;7.38;3.63;;;13.50;99.90;;;;;;5056137;28;20233;-84
2022/06/19 11:49:36;;;;;;;6.93;3.70;;;13.50;99.90;;;;;;5049648;28;20198;-85
2022/06/19 11:52:09;;;;;;;7.72;3.63;;;13.50;99.90;;;;;;5052441;28;21039;-85
2022/06/19 11:54:47;;;;;;;8.30;3.33;;;13.50;99.90;;;;;;5055871;28;20660;-85
2022/06/19 11:57:28;;;;;;;5.07;3.30;;;13.40;99.90;;;;;;5051577;28;20645;-84
2022/06/19 12:00:00;;;;;;;7.05;3.78;;;13.40;99.90;;;;;;5057537;28;20189;-85
2022/06/19 12:02:37;;;;;;;4.95;3.33;;;13.40;99.90;;;;;;5055476;28;20680;-84
2022/06/19 12:05:22;;;;;;;5.38;3.50;;;13.40;99.90;;;;;;5055962;28;20193;-84
2022/06/19 12:07:53;;;;;;;5.97;3.60;;;13.40;99.90;;;;;;5037595;28;20219;-81
2022/06/19 12:10:26;;;;;;;6.38;4.03;;;13.30;99.90;;;;;;5055330;28;20221;-81
2022/06/19 12:12:58;;;;;;;5.32;4.05;;;13.30;99.90;;;;;;5050352;28;20545;-81
2022/06/19 12:15:31;;;;;;;9.38;4.30;;;13.30;99.90;;;;;;5052196;28;20657;-81
2022/06/19 12:18:05;;;;;;;8.35;4.40;;;13.30;99.90;;;;;;5052393;28;20633;-81
2022/06/19 12:20:38;;;;;;;6.18;4.22;;;13.30;99.90;;;;;;5051593;28;20610;-80
2022/06/19 12:23:13;;;;;;;6.90;3.83;;;13.30;99.90;;;;;;5055896;28;20202;-80
2022/06/19 12:25:48;;;;;;;7.38;3.70;;;13.30;99.90;;;;;;5051138;28;20193;-80
2022/06/19 12:28:26;;;;;;;7.35;3.47;;;13.20;99.90;;;;;;5047286;28;20201;-80
2022/06/19 12:31:01;;;;;;;7.00;3.40;;;13.10;99.90;;;;;;5048985;28;20213;-81
2022/06/19 12:33:38;;;;;;;6.68;3.50;;;13.10;99.90;;;;;;5052535;28;20189;-81
2022/06/19 12:36:13;;;;;;;5.43;3.22;;;13.10;99.90;;;;;;5049654;28;20201;-81
2022/06/19 12:38:47;;;;;;;6.20;3.20;;;13.10;99.90;;;;;;5051753;28;20616;-80
2022/06/19 12:41:36;;;;;;;7.72;3.17;;;13.10;99.90;;;;;;5048252;28;20186;-81
2022/06/19 12:44:33;;;;;;;4.60;2.80;;;13.10;99.90;;;;;;5055058;28;20209;-82
2022/06/19 12:47:14;;;;;;;5.45;3.42;;;13.20;99.90;;;;;;5044750;28;20236;-82
2022/06/19 12:50:08;;;;;;;6.93;3.45;;;13.20;99.90;;;;;;5051516;28;20224;-83
2022/06/19 12:52:51;;;;;;;4.88;3.70;;;13.10;99.90;;;;;;5048468;28;20209;-83
2022/06/19 12:55:43;;;;;;;5.65;3.63;;;13.10;99.90;;;;;;5043093;28;20200;-82
2022/06/19 12:58:48;;;;;;;6.18;3.50;;;13.10;99.90;;;;;;5057152;28;20196;-82
2022/06/19 13:01:26;;;;;;;5.38;3.78;;;13.10;99.90;;;;;;5042038;28;20201;-82
2022/06/19 13:04:10;;;;;;;4.93;3.80;;;13.10;99.90;;;;;;5051147;28;20199;-82
2022/06/19 13:06:59;;;;;;;6.63;3.50;;;13.10;99.90;;;;;;5045079;28;20609;-82
2022/06/19 13:09:50;;;;;;;5.63;3.63;;;13.10;99.90;;;;;;5048539;28;20193;-82
2022/06/19 13:12:37;;;;;;;4.90;3.60;;;13.00;99.90;;;;;;5045146;28;20271;-82
2022/06/19 13:15:30;;;;;;;5.78;3.55;;;13.00;99.90;;;;;;5049586;28;20185;-83
2022/06/19 13:18:12;;;;;;;6.10;4.07;;;13.10;99.90;;;;;;5043728;28;20202;-82
2022/06/19 13:20:48;;;;;;;5.78;3.83;;;13.00;99.90;;;;;;5054282;28;20200;-83
2022/06/19 13:23:28;;;;;;;7.15;3.83;;;13.10;99.90;;;;;;5049235;28;20189;-82
2022/06/19 13:27:10;;;;;;;6.82;4.00;;;13.00;99.90;;;;;;5050322;28;20559;-81
2022/06/19 13:29:10;;;;;;;5.43;3.85;;;13.00;99.90;;;;;;5049722;28;20205;-82
2022/06/19 13:31:46;;;;;;;6.60;3.60;;;13.00;99.90;;;;;;5049132;28;20228;-82
2022/06/19 13:34:37;;;;;;;4.90;3.10;;;13.00;99.90;;;;;;5048628;28;20193;-82
2022/06/19 13:37:15;;;;;;;5.80;3.92;;;13.00;99.90;;;;;;5052977;28;20197;-81